createdAt,value
2018-01-30T00:01:42.749Z,45.90
2018-01-30T00:04:11.197Z,45.92
2018-01-30T00:06:39.636Z,46.25
2018-01-30T00:09:08.052Z,45.90
2018-01-30T00:11:36.506Z,46.13
2018-01-30T00:14:04.926Z,46.13
2018-01-30T00:16:33.357Z,46.04
2018-01-30T00:19:01.761Z,46.31
2018-01-30T00:21:30.153Z,46.40
2018-01-30T00:23:58.632Z,46.59
2018-01-30T00:26:27.092Z,47.09
2018-01-30T00:28:55.544Z,46.81
2018-01-30T00:31:23.987Z,46.61
2018-01-30T00:33:52.448Z,46.75
2018-01-30T00:36:20.848Z,46.78
2018-01-30T00:38:49.260Z,46.42
2018-01-30T00:41:17.740Z,46.61
2018-01-30T00:43:46.168Z,46.55
2018-01-30T00:46:14.623Z,46.50
2018-01-30T00:48:43.045Z,46.89
2018-01-30T00:51:11.491Z,47.43
2018-01-30T00:53:40.028Z,47.33
2018-01-30T00:56:08.521Z,47.67
2018-01-30T00:58:36.964Z,47.46
2018-01-30T01:01:05.368Z,47.33
2018-01-30T01:03:33.863Z,47.62
2018-01-30T01:06:02.337Z,47.76
2018-01-30T01:08:30.762Z,47.74
2018-01-30T01:10:59.180Z,48.06
2018-01-30T01:13:27.669Z,47.93
2018-01-30T01:15:56.151Z,47.82
2018-01-30T01:18:24.593Z,47.81
2018-01-30T01:20:52.971Z,47.82
2018-01-30T01:23:21.453Z,47.70
2018-01-30T01:25:49.881Z,47.68
2018-01-30T01:28:18.280Z,47.42
2018-01-30T01:30:46.716Z,48.00
2018-01-30T01:33:15.157Z,48.00
2018-01-30T01:35:43.520Z,47.88
2018-01-30T01:38:11.900Z,47.94
2018-01-30T01:40:40.357Z,47.72
2018-01-30T01:43:08.839Z,47.71
2018-01-30T01:45:37.314Z,47.84
2018-01-30T01:48:05.721Z,47.92
2018-01-30T01:50:34.216Z,47.85
2018-01-30T01:53:02.709Z,48.56
2018-01-30T01:55:31.078Z,48.46
2018-01-30T01:57:59.510Z,48.46
2018-01-30T02:00:27.971Z,48.52
2018-01-30T02:02:56.341Z,48.26
2018-01-30T02:05:24.809Z,48.62
2018-01-30T02:07:53.256Z,49.31
2018-01-30T02:10:21.653Z,48.64
2018-01-30T02:12:50.109Z,49.25
2018-01-30T02:15:18.601Z,49.53
2018-01-30T02:17:47.040Z,49.51
2018-01-30T02:20:15.421Z,49.20
2018-01-30T02:22:43.908Z,49.29
2018-01-30T02:25:12.293Z,48.92
2018-01-30T02:27:40.714Z,49.32
2018-01-30T02:30:09.145Z,49.79
2018-01-30T02:32:37.533Z,49.57
2018-01-30T02:35:06.037Z,49.19
2018-01-30T02:37:34.484Z,49.13
2018-01-30T02:40:02.869Z,49.54
2018-01-30T02:42:31.324Z,49.36
2018-01-30T02:44:59.737Z,49.33
2018-01-30T02:47:28.150Z,49.18
2018-01-30T02:49:56.581Z,49.21
2018-01-30T02:52:25.016Z,49.28
2018-01-30T02:54:53.519Z,49.02
2018-01-30T02:57:21.961Z,49.21
2018-01-30T02:59:50.445Z,49.18
2018-01-30T03:02:18.828Z,48.94
2018-01-30T03:04:47.265Z,48.86
2018-01-30T03:07:15.675Z,48.77
2018-01-30T03:09:44.105Z,49.03
2018-01-30T03:12:12.592Z,48.67
2018-01-30T03:14:40.979Z,49.02
2018-01-30T03:17:09.410Z,49.09
2018-01-30T03:19:37.852Z,49.02
2018-01-30T03:22:06.338Z,48.76
2018-01-30T03:24:34.846Z,48.51
2018-01-30T03:27:03.307Z,49.07
2018-01-30T03:29:31.708Z,49.17
2018-01-30T03:32:00.201Z,49.36
2018-01-30T03:34:28.649Z,49.17
2018-01-30T03:36:57.069Z,49.25
2018-01-30T03:39:25.510Z,49.20
2018-01-30T03:41:53.928Z,49.07
2018-01-30T03:44:22.419Z,49.35
2018-01-30T03:46:50.920Z,49.43
2018-01-30T03:49:19.361Z,49.49
2018-01-30T03:51:47.757Z,49.54
2018-01-30T03:54:16.156Z,49.31
2018-01-30T03:56:45.269Z,49.78
2018-01-30T03:59:13.723Z,49.46
2018-01-30T04:01:42.187Z,49.07
2018-01-30T04:04:10.610Z,48.50
2018-01-30T04:06:39.026Z,48.23
2018-01-30T04:09:07.438Z,48.28
2018-01-30T04:11:35.881Z,48.50
2018-01-30T04:14:04.264Z,48.75
2018-01-30T04:16:32.696Z,48.83
2018-01-30T04:19:01.098Z,49.39
2018-01-30T04:21:29.544Z,49.86
2018-01-30T04:23:57.997Z,50.84
2018-01-30T04:26:26.447Z,51.16
2018-01-30T04:28:54.896Z,50.41
2018-01-30T04:31:23.313Z,50.59
2018-01-30T04:33:51.696Z,50.68
2018-01-30T04:36:20.102Z,50.97
2018-01-30T04:38:48.572Z,50.73
2018-01-30T04:41:16.949Z,51.63
2018-01-30T04:43:45.389Z,51.59
2018-01-30T04:46:13.800Z,51.82
2018-01-30T04:48:42.257Z,52.16
2018-01-30T04:51:10.696Z,52.32
2018-01-30T04:53:39.080Z,52.22
2018-01-30T04:56:07.573Z,54.48
2018-01-30T04:58:35.947Z,53.34
2018-01-30T05:01:04.357Z,54.25
2018-01-30T05:03:32.857Z,53.85
2018-01-30T05:06:01.254Z,53.43
2018-01-30T05:08:29.656Z,54.25
2018-01-30T05:10:58.104Z,55.43
2018-01-30T05:13:26.500Z,55.57
2018-01-30T05:15:55.015Z,55.55
2018-01-30T05:18:23.478Z,54.05
2018-01-30T05:20:51.966Z,54.36
2018-01-30T05:23:20.433Z,54.37
2018-01-30T05:25:48.909Z,54.55
2018-01-30T05:28:17.378Z,55.28
2018-01-30T05:30:45.964Z,56.42
2018-01-30T05:33:14.374Z,56.72
2018-01-30T05:35:42.785Z,55.68
2018-01-30T05:38:11.225Z,56.04
2018-01-30T05:40:40.609Z,55.76
2018-01-30T05:43:09.021Z,55.26
2018-01-30T05:45:37.460Z,57.20
2018-01-30T05:48:05.949Z,56.25
2018-01-30T05:50:34.405Z,55.91
2018-01-30T05:53:02.805Z,55.84
2018-01-30T05:55:31.216Z,56.86
2018-01-30T05:57:59.640Z,55.48
2018-01-30T06:00:28.045Z,57.03
2018-01-30T06:02:56.557Z,56.53
2018-01-30T06:05:24.969Z,57.27
2018-01-30T06:07:53.410Z,58.21
2018-01-30T06:10:21.823Z,57.53
2018-01-30T06:12:50.276Z,57.45
2018-01-30T06:15:18.677Z,59.14
2018-01-30T06:17:47.069Z,59.19
2018-01-30T06:20:15.545Z,59.08
2018-01-30T06:22:44.014Z,59.02
2018-01-30T06:25:12.459Z,59.00
2018-01-30T06:27:40.917Z,58.24
2018-01-30T06:30:09.428Z,57.35
2018-01-30T06:32:37.858Z,57.39
2018-01-30T06:35:06.329Z,57.61
2018-01-30T06:37:34.764Z,57.09
2018-01-30T06:40:03.222Z,56.70
2018-01-30T06:42:31.627Z,57.23
2018-01-30T06:45:00.125Z,56.55
2018-01-30T06:47:28.556Z,56.34
2018-01-30T06:49:57.005Z,56.10
2018-01-30T06:52:25.464Z,55.89
2018-01-30T06:54:53.896Z,55.82
2018-01-30T06:57:22.332Z,56.03
2018-01-30T06:59:50.780Z,55.38
2018-01-30T07:02:19.225Z,55.09
2018-01-30T07:04:48.027Z,55.37
2018-01-30T07:07:16.513Z,55.03
2018-01-30T07:09:45.015Z,54.52
2018-01-30T07:12:13.569Z,54.25
2018-01-30T07:14:42.089Z,53.67
2018-01-30T07:17:10.467Z,53.60
2018-01-30T07:19:38.893Z,53.34
2018-01-30T07:22:07.385Z,53.10
2018-01-30T07:24:35.780Z,52.96
2018-01-30T07:27:04.207Z,52.75
2018-01-30T07:29:32.658Z,52.65
2018-01-30T07:32:01.108Z,52.51
2018-01-30T07:34:29.601Z,52.35
2018-01-30T07:36:57.997Z,52.14
2018-01-30T07:39:26.420Z,51.98
2018-01-30T07:41:54.834Z,51.90
2018-01-30T07:44:23.295Z,51.77
2018-01-30T07:46:51.739Z,51.88
2018-01-30T07:49:20.147Z,51.57
2018-01-30T07:51:48.677Z,51.63
2018-01-30T07:54:17.086Z,51.43
2018-01-30T07:56:45.529Z,51.45
2018-01-30T07:59:13.941Z,51.51
2018-01-30T08:01:42.376Z,51.33
2018-01-30T08:04:10.777Z,51.31
2018-01-30T08:06:39.212Z,51.27
2018-01-30T08:09:07.670Z,51.74
2018-01-30T08:11:36.113Z,51.82
2018-01-30T08:14:04.564Z,52.05
2018-01-30T08:16:32.997Z,51.50
2018-01-30T08:19:01.397Z,51.41
2018-01-30T08:21:29.843Z,51.75
2018-01-30T08:23:58.283Z,51.25
2018-01-30T08:26:26.793Z,50.98
2018-01-30T08:28:55.742Z,50.85
2018-01-30T08:31:24.393Z,50.59
2018-01-30T08:33:54.618Z,50.51
2018-01-30T08:36:25.971Z,50.08
2018-01-30T08:38:56.688Z,50.03
2018-01-30T08:41:25.884Z,49.79
2018-01-30T08:43:54.316Z,49.36
2018-01-30T08:46:22.949Z,49.08
2018-01-30T08:48:51.422Z,48.93
2018-01-30T08:51:19.897Z,49.16
2018-01-30T08:53:48.291Z,49.00
2018-01-30T08:56:16.712Z,48.24
2018-01-30T08:58:45.201Z,48.42
2018-01-30T09:01:13.641Z,48.33
2018-01-30T09:03:42.041Z,47.95
2018-01-30T09:06:10.485Z,47.73
2018-01-30T09:08:38.933Z,47.56
2018-01-30T09:11:07.331Z,46.83
2018-01-30T09:13:35.843Z,46.24
2018-01-30T09:16:04.269Z,46.51
2018-01-30T09:18:32.723Z,46.23
2018-01-30T09:21:01.205Z,46.30
2018-01-30T09:23:29.711Z,45.55
2018-01-30T09:25:58.148Z,45.57
2018-01-30T09:28:26.570Z,44.75
2018-01-30T09:30:54.996Z,45.04
2018-01-30T09:33:23.480Z,45.18
2018-01-30T09:35:51.982Z,45.44
2018-01-30T09:38:20.392Z,44.82
2018-01-30T09:40:48.853Z,44.86
2018-01-30T09:43:17.381Z,44.82
2018-01-30T09:45:45.769Z,44.64
2018-01-30T09:48:14.172Z,44.54
2018-01-30T09:50:42.677Z,44.76
2018-01-30T09:53:11.108Z,44.63
2018-01-30T09:55:39.601Z,44.44
2018-01-30T09:58:08.069Z,44.37
2018-01-30T10:00:36.517Z,43.94
2018-01-30T10:03:04.943Z,43.66
2018-01-30T10:05:33.348Z,43.27
2018-01-30T10:08:01.821Z,43.15
2018-01-30T10:10:30.265Z,43.42
2018-01-30T10:12:58.706Z,43.03
2018-01-30T10:15:27.109Z,42.04
2018-01-30T10:17:55.717Z,42.96
2018-01-30T10:20:24.785Z,42.98
2018-01-30T10:22:53.248Z,42.58
2018-01-30T10:25:21.764Z,42.69
2018-01-30T10:27:50.257Z,42.61
2018-01-30T10:30:18.721Z,42.59
2018-01-30T10:32:47.217Z,42.38
2018-01-30T10:35:15.623Z,41.82
2018-01-30T10:37:44.092Z,40.07
2018-01-30T10:40:12.508Z,40.81
2018-01-30T10:42:40.900Z,38.25
2018-01-30T10:45:09.334Z,36.66
2018-01-30T10:47:37.754Z,36.04
2018-01-30T10:50:06.211Z,35.13
2018-01-30T10:52:34.677Z,35.90
2018-01-30T10:55:03.121Z,34.73
2018-01-30T10:57:31.548Z,35.58
2018-01-30T11:00:00.113Z,34.03
2018-01-30T11:02:28.621Z,34.01
2018-01-30T11:04:57.037Z,34.00
2018-01-30T11:07:25.559Z,31.99
2018-01-30T11:09:54.061Z,30.91
2018-01-30T11:12:22.445Z,31.52
2018-01-30T11:14:50.828Z,31.64
2018-01-30T11:17:19.328Z,30.98
2018-01-30T11:19:47.789Z,29.45
2018-01-30T11:22:16.246Z,29.03
2018-01-30T11:24:44.702Z,29.62
2018-01-30T11:27:13.093Z,29.30
2018-01-30T11:29:41.537Z,28.97
2018-01-30T11:32:09.925Z,28.43
2018-01-30T11:34:38.409Z,28.83
2018-01-30T11:37:06.845Z,29.31
2018-01-30T11:39:35.350Z,28.86
2018-01-30T11:42:03.740Z,28.35
2018-01-30T11:44:32.265Z,28.28
2018-01-30T11:47:00.700Z,28.64
2018-01-30T11:49:29.168Z,27.49
2018-01-30T11:51:57.618Z,28.40
2018-01-30T11:54:26.048Z,28.76
2018-01-30T11:56:54.493Z,28.29
2018-01-30T11:59:22.933Z,28.53
2018-01-30T12:01:51.385Z,27.59
2018-01-30T12:04:19.827Z,27.40
2018-01-30T12:06:48.239Z,28.17
2018-01-30T12:09:16.737Z,27.73
2018-01-30T12:11:45.167Z,28.11
2018-01-30T12:14:13.605Z,27.93
2018-01-30T12:16:42.049Z,28.11
2018-01-30T12:19:10.468Z,28.37
2018-01-30T12:21:38.953Z,28.35
2018-01-30T12:24:07.388Z,28.15
2018-01-30T12:26:35.849Z,27.70
2018-01-30T12:29:04.328Z,27.54
2018-01-30T12:31:32.726Z,28.05
2018-01-30T12:34:01.248Z,27.70
2018-01-30T12:36:29.734Z,27.46
2018-01-30T12:38:58.133Z,27.37
2018-01-30T12:41:26.625Z,26.53
2018-01-30T12:43:55.131Z,26.21
2018-01-30T12:46:23.539Z,25.96
2018-01-30T12:48:51.976Z,25.72
2018-01-30T12:51:20.421Z,25.20
2018-01-30T12:53:48.986Z,25.30
2018-01-30T12:56:17.470Z,25.54
2018-01-30T12:58:45.860Z,25.04
2018-01-30T13:01:14.326Z,25.70
2018-01-30T13:03:42.773Z,25.28
2018-01-30T13:06:11.228Z,25.74
2018-01-30T13:08:39.648Z,25.41
2018-01-30T13:11:08.097Z,25.58
2018-01-30T13:13:36.498Z,25.04
2018-01-30T13:16:04.886Z,25.23
2018-01-30T13:18:33.344Z,25.06
2018-01-30T13:21:01.783Z,24.53
2018-01-30T13:23:30.224Z,24.92
2018-01-30T13:25:58.650Z,25.13
2018-01-30T13:28:27.068Z,25.28
2018-01-30T13:30:55.452Z,25.38
2018-01-30T13:33:24.016Z,25.63
2018-01-30T13:35:52.421Z,25.82
2018-01-30T13:38:20.954Z,25.84
2018-01-30T13:40:49.343Z,26.33
2018-01-30T13:43:17.743Z,26.56
2018-01-30T13:45:46.187Z,26.42
2018-01-30T13:48:14.610Z,26.55
2018-01-30T13:50:43.061Z,26.70
2018-01-30T13:53:11.521Z,26.62
2018-01-30T13:55:39.990Z,27.25
2018-01-30T13:58:08.428Z,27.14
2018-01-30T14:00:36.879Z,27.17
2018-01-30T14:03:05.386Z,27.49
2018-01-30T14:05:33.816Z,27.41
2018-01-30T14:08:02.262Z,27.49
2018-01-30T14:10:30.658Z,27.68
2018-01-30T14:12:59.155Z,28.04
2018-01-30T14:15:27.565Z,28.19
2018-01-30T14:17:56.053Z,28.15
2018-01-30T14:20:24.499Z,28.32
2018-01-30T14:22:52.937Z,28.62
2018-01-30T14:25:21.388Z,28.70
2018-01-30T14:27:49.830Z,28.72
2018-01-30T14:30:18.217Z,28.96
2018-01-30T14:32:46.700Z,28.97
2018-01-30T14:35:15.137Z,29.20
2018-01-30T14:37:43.533Z,29.36
2018-01-30T14:40:11.968Z,29.57
2018-01-30T14:42:40.355Z,29.77
2018-01-30T14:45:08.749Z,29.97
2018-01-30T14:47:37.189Z,30.18
2018-01-30T14:50:05.618Z,30.45
2018-01-30T14:52:34.081Z,30.63
2018-01-30T14:55:02.560Z,30.92
2018-01-30T14:57:31.093Z,31.14
2018-01-30T14:59:59.595Z,31.26
2018-01-30T15:02:28.105Z,31.35
2018-01-30T15:04:56.561Z,31.28
2018-01-30T15:07:25.049Z,31.28
2018-01-30T15:09:53.506Z,30.79
2018-01-30T15:12:22.001Z,30.74
2018-01-30T15:14:50.490Z,30.43
2018-01-30T15:17:18.946Z,30.40
2018-01-30T15:19:47.457Z,30.54
2018-01-30T15:22:15.909Z,30.43
2018-01-30T15:24:44.413Z,30.49
2018-01-30T15:27:12.909Z,30.69
2018-01-30T15:29:41.409Z,30.82
2018-01-30T15:32:09.932Z,30.87
2018-01-30T15:34:38.447Z,30.88
2018-01-30T15:37:06.968Z,30.80
2018-01-30T15:39:35.486Z,31.43
2018-01-30T15:42:03.992Z,31.21
2018-01-30T15:44:32.490Z,31.27
2018-01-30T15:47:00.946Z,31.69
2018-01-30T15:49:29.447Z,31.51
2018-01-30T15:51:57.909Z,31.31
2018-01-30T15:54:26.425Z,31.30
2018-01-30T15:56:54.892Z,31.50
2018-01-30T15:59:23.398Z,31.52
2018-01-30T16:01:51.864Z,31.51
2018-01-30T16:04:20.363Z,31.67
2018-01-30T16:06:48.857Z,31.89
2018-01-30T16:09:17.334Z,31.78
2018-01-30T16:11:45.817Z,32.26
2018-01-30T16:14:14.272Z,32.44
2018-01-30T16:16:42.788Z,32.46
2018-01-30T16:19:11.258Z,32.59
2018-01-30T16:21:39.782Z,32.45
2018-01-30T16:24:08.325Z,32.61
2018-01-30T16:26:36.842Z,32.60
2018-01-30T16:29:05.337Z,32.77
2018-01-30T16:31:33.854Z,32.91
2018-01-30T16:34:02.412Z,33.25
2018-01-30T16:36:30.874Z,33.45
2018-01-30T16:38:59.389Z,33.56
2018-01-30T16:41:27.879Z,33.79
2018-01-30T16:43:56.382Z,33.90
2018-01-30T16:46:24.849Z,34.33
2018-01-30T16:48:53.400Z,34.47
2018-01-30T16:51:21.856Z,34.73
2018-01-30T16:53:50.357Z,34.83
2018-01-30T16:56:18.862Z,35.27
2018-01-30T16:58:47.382Z,35.95
2018-01-30T17:01:15.964Z,35.93
2018-01-30T17:03:44.517Z,36.48
2018-01-30T17:06:13.059Z,36.81
2018-01-30T17:08:41.530Z,36.91
2018-01-30T17:11:10.078Z,37.48
2018-01-30T17:13:38.560Z,37.46
2018-01-30T17:16:07.035Z,37.19
2018-01-30T17:18:35.489Z,37.47
2018-01-30T17:21:03.969Z,37.30
2018-01-30T17:23:32.461Z,37.39
2018-01-30T17:26:00.936Z,37.60
2018-01-30T17:28:29.421Z,37.65
2018-01-30T17:30:57.925Z,37.50
2018-01-30T17:33:26.380Z,37.60
2018-01-30T17:35:54.877Z,37.60
2018-01-30T17:38:23.366Z,37.66
2018-01-30T17:40:51.846Z,37.98
2018-01-30T17:43:20.305Z,38.08
2018-01-30T17:45:48.816Z,38.24
2018-01-30T17:48:17.277Z,38.69
2018-01-30T17:50:45.768Z,38.71
2018-01-30T17:53:14.246Z,39.16
2018-01-30T17:55:42.683Z,39.31
2018-01-30T17:58:11.167Z,39.33
2018-01-30T18:00:39.664Z,39.42
2018-01-30T18:03:08.126Z,39.41
2018-01-30T18:05:36.638Z,39.60
2018-01-30T18:08:05.142Z,39.90
2018-01-30T18:10:33.636Z,39.92
2018-01-30T18:13:02.066Z,40.07
2018-01-30T18:15:30.553Z,40.18
2018-01-30T18:17:59.001Z,39.94
2018-01-30T18:20:28.370Z,39.93
2018-01-30T18:22:56.820Z,39.85
2018-01-30T18:25:25.308Z,39.86
2018-01-30T18:27:53.754Z,39.79
2018-01-30T18:30:22.374Z,39.73
2018-01-30T18:32:50.845Z,39.71
2018-01-30T18:35:19.330Z,39.64
2018-01-30T18:37:47.778Z,39.88
2018-01-30T18:40:16.278Z,39.65
2018-01-30T18:42:44.801Z,39.74
2018-01-30T18:45:13.264Z,39.90
2018-01-30T18:47:41.743Z,39.93
2018-01-30T18:50:10.245Z,39.85
2018-01-30T18:52:38.714Z,39.84
2018-01-30T18:55:07.182Z,39.84
2018-01-30T18:57:35.678Z,39.86
2018-01-30T19:00:04.199Z,40.03
2018-01-30T19:02:32.669Z,40.17
2018-01-30T19:05:01.214Z,40.07
2018-01-30T19:07:29.659Z,40.06
2018-01-30T19:09:58.117Z,40.14
2018-01-30T19:12:26.630Z,40.28
2018-01-30T19:14:55.142Z,40.38
2018-01-30T19:17:23.656Z,40.71
2018-01-30T19:19:52.159Z,40.93
2018-01-30T19:22:20.658Z,40.92
2018-01-30T19:24:49.153Z,41.13
2018-01-30T19:27:17.621Z,41.18
2018-01-30T19:29:46.142Z,41.14
2018-01-30T19:32:14.645Z,41.29
2018-01-30T19:34:43.170Z,41.62
2018-01-30T19:37:11.683Z,41.75
2018-01-30T19:39:40.154Z,41.88
2018-01-30T19:42:08.754Z,42.02
2018-01-30T19:44:37.217Z,42.13
2018-01-30T19:47:05.689Z,42.26
2018-01-30T19:49:34.205Z,42.51
2018-01-30T19:52:02.678Z,42.48
2018-01-30T19:54:31.186Z,42.84
2018-01-30T19:56:59.660Z,43.08
2018-01-30T19:59:28.173Z,43.24
2018-01-30T20:01:56.687Z,43.42
2018-01-30T20:04:25.161Z,43.52
2018-01-30T20:06:53.662Z,43.57
2018-01-30T20:09:22.158Z,43.88
2018-01-30T20:11:50.615Z,44.17
2018-01-30T20:14:19.117Z,44.14
2018-01-30T20:16:47.586Z,44.29
2018-01-30T20:19:16.058Z,44.40
2018-01-30T20:21:44.560Z,44.42
2018-01-30T20:24:13.026Z,44.55
2018-01-30T20:26:45.443Z,44.50
2018-01-30T20:29:13.898Z,44.43
2018-01-30T20:31:43.205Z,44.61
2018-01-30T20:34:11.701Z,44.44
2018-01-30T20:36:40.141Z,44.26
2018-01-30T20:39:08.622Z,44.25
2018-01-30T20:41:37.112Z,44.83
2018-01-30T20:44:05.570Z,44.62
2018-01-30T20:46:34.092Z,44.51
2018-01-30T20:49:02.552Z,44.81
2018-01-30T20:51:31.076Z,44.65
2018-01-30T20:53:59.605Z,44.68
2018-01-30T20:56:28.058Z,45.03
2018-01-30T20:58:56.553Z,45.10
2018-01-30T21:01:25.005Z,45.34
2018-01-30T21:03:53.510Z,45.46
2018-01-30T21:06:21.953Z,45.28
2018-01-30T21:08:50.442Z,45.29
2018-01-30T21:11:18.939Z,45.32
2018-01-30T21:13:48.229Z,45.46
2018-01-30T21:16:16.738Z,45.74
2018-01-30T21:18:45.200Z,45.41
2018-01-30T21:21:13.703Z,45.64
2018-01-30T21:23:42.172Z,46.18
2018-01-30T21:26:10.631Z,46.37
2018-01-30T21:28:39.138Z,46.35
2018-01-30T21:31:07.601Z,46.69
2018-01-30T21:33:36.127Z,46.77
2018-01-30T21:36:04.587Z,46.53
2018-01-30T21:38:33.046Z,46.64
2018-01-30T21:41:01.546Z,46.47
2018-01-30T21:43:29.998Z,46.40
2018-01-30T21:45:58.489Z,46.19
2018-01-30T21:48:26.946Z,46.04
2018-01-30T21:50:55.453Z,45.97
2018-01-30T21:53:23.910Z,45.82
2018-01-30T21:55:52.391Z,45.72
2018-01-30T21:58:20.913Z,45.56
2018-01-30T22:00:49.424Z,45.81
2018-01-30T22:03:17.931Z,45.96
2018-01-30T22:05:46.421Z,45.48
2018-01-30T22:08:14.934Z,45.24
2018-01-30T22:10:43.410Z,44.94
2018-01-30T22:13:11.940Z,44.76
2018-01-30T22:15:40.397Z,44.68
2018-01-30T22:18:08.960Z,44.51
2018-01-30T22:20:37.489Z,44.25
2018-01-30T22:23:05.956Z,43.97
2018-01-30T22:25:34.448Z,43.88
2018-01-30T22:28:02.949Z,43.61
2018-01-30T22:30:31.404Z,43.51
2018-01-30T22:32:59.912Z,43.47
2018-01-30T22:35:28.362Z,43.22
2018-01-30T22:37:56.865Z,42.84
2018-01-30T22:40:25.289Z,43.09
2018-01-30T22:42:53.855Z,43.12
2018-01-30T22:45:22.366Z,43.12
